• Join FlightAware (Why Join?)
  • Login
  • US Flag 
06:09PM EDT


 

Airport Tracker/Info


-or-


 

Live Flight TrackerFlight Track Log ✈ GJS3657 ✈ 16-Jun-2013 ✈ KDAY - KORD

Flight Track Log - Related Links

Times and Time Zones

All times are in EDT time to prevent confusion due to time zone crossing. See the GJS3657 flight status page for this flight to view local times or setup timezone preferences in your user account.

Time Position Orientation Groundspeed Altitude Reporting Facility
EDT Latitude Longitude Course Direction KTS MPH feet Rate Location/Type
03:55PM 39.8919 -84.3039 265° West 173 199 3,900  Level Indianapolis Center
03:56PM 39.9506 -84.3639 322° Northwest 233 268 6,400 2,700 Climbing Indianapolis Center
03:57PM 40.0175 -84.4158 329° Northwest 272 313 9,500 2,700 Climbing Indianapolis Center
03:58PM 40.0836 -84.4678 329° Northwest 274 315 12,000 1,980 Climbing Indianapolis Center
03:59PM 40.2681 -84.5680 323° Northwest  Level FlightAware Approximate
03:59PM 40.1594 -84.5289 328° Northwest 312 359 13,700  Level Indianapolis Center
04:00PM 40.2414 -84.5942 329° Northwest 334 384 15,400 1,560 Climbing Indianapolis Center
04:01PM 40.3331 -84.6658 329° Northwest 371 427 16,900 1,620 Climbing Indianapolis Center
04:02PM 40.4239 -84.7383 329° Northwest 379 436 18,800 1,440 Climbing Indianapolis Center
04:03PM 40.5189 -84.8136 329° Northwest 391 450 19,900 1,140 Climbing Indianapolis Center
04:04PM 40.6175 -84.8939 328° Northwest 408 470 21,200 1,320 Climbing Indianapolis Center
04:05PM 40.6636 -84.9483 318° Northwest 415 478 21,900 540 Climbing Chicago Center
04:06PM 40.7319 -85.0644 308° West 406 467 22,000  Climbing Chicago Center
04:07PM 40.7981 -85.1783 308° West 396 456 22,000  Level Chicago Center
04:08PM 40.8625 -85.2897 307° West 386 444 22,000  Level Chicago Center
04:09PM 40.9289 -85.4067 307° West 393 452 22,000  Level Chicago Center
04:10PM 40.9961 -85.5233 307° West 398 458 22,000  Level Chicago Center
04:11PM 41.0614 -85.6397 307° West 393 452 22,000  Level Chicago Center
04:12PM 41.1397 -85.7792 307° West 392 451 22,000  Level Chicago Center
04:13PM 41.2036 -85.8928 307° West 384 442 22,000  Level Chicago Center
04:14PM 41.2647 -86.0069 305° West 378 435 22,000  Level Chicago Center
04:15PM 41.3108 -86.1331 296° West 376 433 22,000 -780 Level Chicago Center
04:16PM 41.3689 -86.2439 305° West 367 422 20,400 -1,740 Descending Chicago Center
04:17PM 41.4267 -86.3550 305° West 363 418 18,500 -2,160 Descending Chicago Center
04:18PM 41.4964 -86.4878 305° West 364 419 16,000 -2,280 Descending Chicago Center
04:19PM 41.5522 -86.5939 305° West 353 406 13,900 -1,920 Descending Chicago Center
04:20PM 41.6056 -86.6961 305° West 340 391 12,100 -900 Descending Chicago Center
04:21PM 41.6711 -86.7900 313° West 341 392 12,100 -60 Level Chicago Center
04:22PM 41.7622 -86.8075 352° North 334 384 12,000 -540 Descending Chicago Center
04:23PM 41.8536 -86.8281 350° North 335 386 11,100 -540 Descending Chicago Center
04:24PM 41.9203 -86.9056 319° Northwest 329 379 11,000 -300 Descending Chicago Center
04:25PM 41.9667 -87.0331 296° West 324 373 10,600 -720 Descending Chicago Center
04:26PM 41.9831 -87.1339 282° West 278 320 9,600 -900 Descending Chicago Center
04:27PM 41.9825 -87.2256 270° West 250 288 8,800 -1,140 Descending Chicago Center
04:28PM 41.9831 -87.3103 271° West 234 269 7,300 -900 Descending Chicago Center
04:29PM 41.9836 -87.3892 271° West 219 252 7,000 -180 Descending Chicago Center
04:31PM 41.9831 -87.4633 269° West 177 204 7,000 -540 Level Chicago Center
04:32PM 41.9833 -87.5300 270° West 181 208 6,000 -1,080 Descending Chicago Center
04:33PM 41.9828 -87.5972 269° West 183 211 4,800 -1,080 Descending Chicago Center
04:34PM 41.9844 -87.6656 272° West 185 213 3,800 -960 Descending Chicago Center